Lucknow, Canada
Current Conditions -  °F | °C
As of 10:00 PM on Friday 21 Nov 2014 (Local Time) from CYVV Reporting Station
Few Clouds Few Clouds  
Wind Chill:   Ceiling: Unl
Heat Index: 18°   Visibility: 15mi
Dew Point:   Wind: 15mph
Humidity: 68%   Direction: 180°S
Pressure: 30.25"   Gusts: NA
Location:  43.95°N, 81.52°W
Report Text: CYVV 220300Z 18013KT 15SM FEW030 M08/M13 A3025 RMK SC2 SLP259
Loading
Personal Weather Stations






























Interactive Weather Map New forecast layout! Learn more

10-Day Weather Forecast

Advertisements
Track Severe Weather on mobile